Terminal Aerodrome Forecast
Issued by NWS

Home | Current Version | Previous Version | Text Only | Print | Product List | Glossary On
Versions: 1 2 3 4 5 6 7 8 9 10 11 12 13 14 15 16 17 18
000
FTUS42 KTAE 230700 AAB
TAFVLD
TAF AMD
KVLD 230701Z 2307/2406 01007KT P6SM OVC028
     FM230900 03005KT P6SM SCT007 BKN015
      TEMPO 2310/2313 BKN007 OVC014
     FM231500 05007KT P6SM BKN025
     FM231800 04010G17KT P6SM SCT030 BKN250
     FM240300 05008KT P6SM SCT025=

USA.gov is the U.S. government's official web portal to all federal, state and local government web resources and services.